Historyczne dane pomiarowe

Dodano dane terminowe – wersja testowa.

Dane z okresu 1951-2019

Wersja bazy: 1.34 [2019-03-16, lista zmian], aktualizacja planowana na 2019-04-15

Dane meteo z obszaru Polski uzyskane na podstawie danych udostępnionych przez Instytut Meteorologii i Gospodarki Wodnej – Państwowy Instytut Badawczy.

 

Wybierz Datę:    

       

TemperaturaWilgotnośćWiatrCiśnienieOpadyŚniegCzas trwania zjawisk
 Stacja t tx tn tng RH VA  wxwx mslp ppp RRR   cm mm wxwxwxwxwxwxwx
2005-08-13 15.4 21.0 8.6 6.4--- 3.3---- 12.0--x---------
2005-08-14 15.0 18.7 12.0 11.4--- 2.3---- 0.5--x---------
2005-08-15 17.9 22.3 13.1 12.4--- 3.0---- 0.0--x---------
2005-08-16 17.7 22.9 12.4 11.0--- 2.3---- 0.6--x---------
2005-08-17 19.4 25.6 14.3 13.5--- 2.0---- 0.0--x---------
2005-08-18 19.2 25.3 13.2 11.1--- 3.7---- 0.1--x---------
2005-08-19 19.6 26.2 13.2 11.0--- 4.7---- 0.0--x---------
2005-08-20 20.0 26.3 13.1 11.5--- 4.0---- 0.0--x---------
2005-08-21 20.0 27.0 12.6 10.5--- 3.7---- 0.0--x---------
2005-08-22 19.7 26.4 13.5 10.8--- 3.7---- 0.0--x---------
2005-08-23 20.4 26.7 15.2 13.3--- 2.7---- 0.0--x---------
2005-08-24 20.0 26.4 15.5 14.2--- 2.3---- 0.3--x---------
2005-08-25 19.1 26.6 13.2 11.6--- 1.7---- 0.2--x---------
2005-08-26 19.0 23.3 17.1 15.9--- 3.3---- 0.2--x---------
2005-08-27 15.2 22.2 9.0 6.3--- 2.0---- 0.0--x---------
2005-08-28 16.4 25.2 8.4 7.2--- 1.3---- 0.0--x---------
2005-08-29 18.3 26.3 10.9 9.0--- 1.0---- 0.0--x---------
2005-08-30 20.7 29.1 13.5 10.4--- 3.0---- 0.0--x---------
2005-08-31 17.7 24.1 12.2 9.8--- 2.3---- 0.0--x---------
2005-09-01 16.4 23.9 8.7 6.2--- 3.7---- 0.0--x---------
2005-09-02 16.1 23.6 7.2 4.9--- 2.0---- 0.1--x---------
2005-09-03 16.3 24.1 9.1 6.8--- 0.3---- 0.1--x---------
2005-09-04 17.5 26.0 9.7 7.9--- 2.0---- 0.0--x---------
2005-09-05 16.8 26.4 8.6 6.8--- 1.0---- 0.0--x---------
2005-09-06 17.8 27.4 9.3 7.2--- 1.0---- 0.0--x---------
2005-09-07 19.4 27.1 13.8 9.8--- 1.7---- 0.0--x---------
2005-09-08 21.6 28.7 16.2 14.5--- 2.3---- 0.0--x---------
2005-09-09 22.3 29.1 16.4 14.0--- 2.3---- 0.0--x---------
2005-09-10 22.2 28.2 17.3 15.7--- 3.3---- 0.0--x---------
2005-09-11 21.6 26.8 19.2 18.7--- 3.3---- 1.5--x---------
239.6 ms

 

Źródłem pochodzenia danych jest Instytut Meteorologii i Gospodarki Wodnej – Państwowy Instytut Badawczy. Dane Instytutu Meteorologii i Gospodarki Wodnej – Państwowego Instytutu Badawczego zostały przetworzone.

Dane źródłowe można odnaleźć na stronie https://dane.imgw.pl